sensor_id;sensor_type;location;lat;lon;timestamp;pressure;altitude;pressure_sealevel;temperature;humidity
72959;BME280;60008;50.826;6.896;2022-11-20T00:01:38;100632.28;;;3.10;100.00
72959;BME280;60008;50.826;6.896;2022-11-20T00:04:24;100623.22;;;3.14;100.00
72959;BME280;60008;50.826;6.896;2022-11-20T00:07:08;100630.13;;;3.15;100.00
72959;BME280;60008;50.826;6.896;2022-11-20T00:09:53;100623.44;;;3.11;100.00
72959;BME280;60008;50.826;6.896;2022-11-20T00:12:38;100620.03;;;2.75;100.00
72959;BME280;60008;50.826;6.896;2022-11-20T00:15:24;100627.81;;;2.88;100.00
72959;BME280;60008;50.826;6.896;2022-11-20T00:18:09;100629.81;;;2.84;100.00
72959;BME280;60008;50.826;6.896;2022-11-20T00:21:01;100633.38;;;2.83;100.00
72959;BME280;60008;50.826;6.896;2022-11-20T00:23:46;100624.22;;;2.89;100.00
72959;BME280;60008;50.826;6.896;2022-11-20T00:26:31;100626.53;;;3.05;100.00
72959;BME280;60008;50.826;6.896;2022-11-20T00:29:17;100634.50;;;3.03;100.00
72959;BME280;60008;50.826;6.896;2022-11-20T00:32:02;100623.47;;;2.76;100.00
72959;BME280;60008;50.826;6.896;2022-11-20T00:34:47;100615.84;;;2.73;100.00
72959;BME280;60008;50.826;6.896;2022-11-20T00:37:33;100615.00;;;2.72;100.00
72959;BME280;60008;50.826;6.896;2022-11-20T00:40:17;100622.91;;;2.83;100.00
72959;BME280;60008;50.826;6.896;2022-11-20T00:43:03;100624.25;;;3.00;100.00
72959;BME280;60008;50.826;6.896;2022-11-20T00:45:48;100621.94;;;2.73;100.00
72959;BME280;60008;50.826;6.896;2022-11-20T00:48:33;100612.53;;;2.71;100.00
72959;BME280;60008;50.826;6.896;2022-11-20T00:51:20;100608.09;;;2.60;100.00
72959;BME280;60008;50.826;6.896;2022-11-20T00:54:05;100617.91;;;2.80;100.00
72959;BME280;60008;50.826;6.896;2022-11-20T00:56:53;100618.16;;;2.88;100.00
72959;BME280;60008;50.826;6.896;2022-11-20T00:59:38;100616.50;;;2.87;100.00
72959;BME280;60008;50.826;6.896;2022-11-20T01:02:23;100615.06;;;2.83;100.00
72959;BME280;60008;50.826;6.896;2022-11-20T01:05:07;100618.19;;;2.99;100.00
72959;BME280;60008;50.826;6.896;2022-11-20T01:07:53;100625.56;;;2.94;100.00
72959;BME280;60008;50.826;6.896;2022-11-20T01:10:38;100629.41;;;3.02;100.00
72959;BME280;60008;50.826;6.896;2022-11-20T01:13:23;100619.63;;;3.04;100.00
72959;BME280;60008;50.826;6.896;2022-11-20T01:16:25;100620.41;;;2.82;100.00
72959;BME280;60008;50.826;6.896;2022-11-20T01:19:13;100618.03;;;2.79;100.00
72959;BME280;60008;50.826;6.896;2022-11-20T01:22:01;100625.03;;;2.78;100.00
72959;BME280;60008;50.826;6.896;2022-11-20T01:24:47;100629.59;;;2.87;100.00
72959;BME280;60008;50.826;6.896;2022-11-20T01:27:32;100623.88;;;2.82;100.00
72959;BME280;60008;50.826;6.896;2022-11-20T01:30:17;100616.56;;;2.75;100.00
72959;BME280;60008;50.826;6.896;2022-11-20T01:33:02;100624.84;;;2.92;100.00
72959;BME280;60008;50.826;6.896;2022-11-20T01:35:47;100621.03;;;2.96;100.00
72959;BME280;60008;50.826;6.896;2022-11-20T01:38:32;100612.22;;;2.86;100.00
72959;BME280;60008;50.826;6.896;2022-11-20T01:41:17;100618.63;;;2.82;100.00
72959;BME280;60008;50.826;6.896;2022-11-20T01:44:52;100610.69;;;2.95;100.00
72959;BME280;60008;50.826;6.896;2022-11-20T01:47:40;100604.06;;;2.67;100.00
72959;BME280;60008;50.826;6.896;2022-11-20T01:50:28;100602.16;;;2.69;100.00
72959;BME280;60008;50.826;6.896;2022-11-20T01:53:17;100590.50;;;2.62;100.00
72959;BME280;60008;50.826;6.896;2022-11-20T01:56:05;100587.66;;;2.65;100.00
72959;BME280;60008;50.826;6.896;2022-11-20T01:58:55;100572.78;;;2.66;100.00
72959;BME280;60008;50.826;6.896;2022-11-20T02:01:41;100563.22;;;2.54;100.00
72959;BME280;60008;50.826;6.896;2022-11-20T02:04:26;100571.06;;;2.54;100.00
72959;BME280;60008;50.826;6.896;2022-11-20T02:07:11;100575.25;;;2.56;100.00
72959;BME280;60008;50.826;6.896;2022-11-20T02:09:56;100585.66;;;2.69;100.00
72959;BME280;60008;50.826;6.896;2022-11-20T02:12:42;100590.88;;;2.69;100.00
72959;BME280;60008;50.826;6.896;2022-11-20T02:15:47;100592.31;;;2.73;100.00
72959;BME280;60008;50.826;6.896;2022-11-20T02:18:33;100599.97;;;2.87;100.00
72959;BME280;60008;50.826;6.896;2022-11-20T02:21:28;100592.22;;;2.85;100.00
72959;BME280;60008;50.826;6.896;2022-11-20T02:24:18;100595.53;;;2.76;100.00
72959;BME280;60008;50.826;6.896;2022-11-20T02:27:09;100590.88;;;2.69;100.00
72959;BME280;60008;50.826;6.896;2022-11-20T02:30:01;100590.53;;;2.73;100.00
72959;BME280;60008;50.826;6.896;2022-11-20T02:32:46;100595.09;;;2.82;100.00
72959;BME280;60008;50.826;6.896;2022-11-20T02:38:17;100583.69;;;2.94;100.00
72959;BME280;60008;50.826;6.896;2022-11-20T02:41:02;100571.03;;;2.88;100.00
72959;BME280;60008;50.826;6.896;2022-11-20T02:43:47;100570.97;;;2.55;100.00
72959;BME280;60008;50.826;6.896;2022-11-20T02:46:33;100565.22;;;2.50;100.00
72959;BME280;60008;50.826;6.896;2022-11-20T02:49:18;100577.81;;;2.45;100.00
72959;BME280;60008;50.826;6.896;2022-11-20T02:52:04;100579.69;;;2.67;100.00
72959;BME280;60008;50.826;6.896;2022-11-20T02:54:49;100584.47;;;2.73;100.00
72959;BME280;60008;50.826;6.896;2022-11-20T02:57:34;100577.94;;;2.78;100.00
72959;BME280;60008;50.826;6.896;2022-11-20T03:00:19;100589.25;;;2.79;100.00
72959;BME280;60008;50.826;6.896;2022-11-20T03:03:04;100583.06;;;2.91;100.00
72959;BME280;60008;50.826;6.896;2022-11-20T03:05:49;100573.75;;;2.76;100.00
72959;BME280;60008;50.826;6.896;2022-11-20T03:08:35;100566.16;;;2.84;100.00
72959;BME280;60008;50.826;6.896;2022-11-20T03:11:20;100568.09;;;2.82;100.00
72959;BME280;60008;50.826;6.896;2022-11-20T03:14:05;100570.72;;;2.93;100.00
72959;BME280;60008;50.826;6.896;2022-11-20T03:16:50;100569.16;;;2.90;100.00
72959;BME280;60008;50.826;6.896;2022-11-20T03:19:35;100572.03;;;2.87;100.00
72959;BME280;60008;50.826;6.896;2022-11-20T03:22:20;100564.63;;;2.81;100.00
72959;BME280;60008;50.826;6.896;2022-11-20T03:25:05;100566.03;;;2.85;100.00
72959;BME280;60008;50.826;6.896;2022-11-20T03:27:50;100564.00;;;2.78;100.00
72959;BME280;60008;50.826;6.896;2022-11-20T03:30:36;100559.84;;;2.75;100.00
72959;BME280;60008;50.826;6.896;2022-11-20T03:33:21;100571.53;;;2.82;100.00
72959;BME280;60008;50.826;6.896;2022-11-20T03:36:08;100564.63;;;2.81;100.00
72959;BME280;60008;50.826;6.896;2022-11-20T03:38:55;100563.31;;;2.87;100.00
72959;BME280;60008;50.826;6.896;2022-11-20T03:41:41;100560.09;;;2.83;100.00
72959;BME280;60008;50.826;6.896;2022-11-20T03:44:26;100563.44;;;2.74;100.00
72959;BME280;60008;50.826;6.896;2022-11-20T03:47:11;100553.91;;;2.73;100.00
72959;BME280;60008;50.826;6.896;2022-11-20T03:49:56;100548.66;;;2.73;100.00
72959;BME280;60008;50.826;6.896;2022-11-20T03:52:41;100539.97;;;2.73;100.00
72959;BME280;60008;50.826;6.896;2022-11-20T03:55:26;100537.50;;;2.82;100.00
72959;BME280;60008;50.826;6.896;2022-11-20T03:58:11;100542.59;;;2.73;100.00
72959;BME280;60008;50.826;6.896;2022-11-20T04:01:04;100537.34;;;2.62;100.00
72959;BME280;60008;50.826;6.896;2022-11-20T04:03:51;100542.78;;;2.59;100.00
72959;BME280;60008;50.826;6.896;2022-11-20T04:06:37;100536.97;;;2.55;100.00
72959;BME280;60008;50.826;6.896;2022-11-20T04:09:22;100546.66;;;2.77;100.00
72959;BME280;60008;50.826;6.896;2022-11-20T04:12:07;100542.25;;;2.66;100.00
72959;BME280;60008;50.826;6.896;2022-11-20T04:14:53;100539.03;;;2.74;100.00
72959;BME280;60008;50.826;6.896;2022-11-20T04:17:38;100529.53;;;2.84;100.00
72959;BME280;60008;50.826;6.896;2022-11-20T04:20:23;100526.53;;;2.77;100.00
72959;BME280;60008;50.826;6.896;2022-11-20T04:23:08;100527.84;;;2.83;100.00
72959;BME280;60008;50.826;6.896;2022-11-20T04:25:53;100530.00;;;2.78;100.00
72959;BME280;60008;50.826;6.896;2022-11-20T04:28:39;100536.44;;;2.85;100.00
72959;BME280;60008;50.826;6.896;2022-11-20T04:31:26;100538.22;;;2.84;100.00
72959;BME280;60008;50.826;6.896;2022-11-20T04:34:11;100534.63;;;2.85;100.00
72959;BME280;60008;50.826;6.896;2022-11-20T04:36:57;100534.31;;;2.90;100.00
72959;BME280;60008;50.826;6.896;2022-11-20T04:39:43;100534.19;;;2.91;100.00
72959;BME280;60008;50.826;6.896;2022-11-20T04:42:28;100525.16;;;2.95;100.00
72959;BME280;60008;50.826;6.896;2022-11-20T04:45:13;100527.88;;;2.94;100.00
72959;BME280;60008;50.826;6.896;2022-11-20T04:47:58;100532.16;;;2.95;100.00
72959;BME280;60008;50.826;6.896;2022-11-20T04:50:43;100529.78;;;2.92;100.00
72959;BME280;60008;50.826;6.896;2022-11-20T04:53:28;100538.13;;;2.97;100.00
72959;BME280;60008;50.826;6.896;2022-11-20T04:56:13;100538.72;;;2.89;100.00
72959;BME280;60008;50.826;6.896;2022-11-20T04:59:01;100542.88;;;2.92;100.00
72959;BME280;60008;50.826;6.896;2022-11-20T05:01:46;100548.78;;;2.83;100.00
72959;BME280;60008;50.826;6.896;2022-11-20T05:04:31;100546.31;;;2.81;100.00
72959;BME280;60008;50.826;6.896;2022-11-20T05:07:16;100545.59;;;2.79;100.00
72959;BME280;60008;50.826;6.896;2022-11-20T05:10:01;100545.00;;;2.87;100.00
72959;BME280;60008;50.826;6.896;2022-11-20T05:12:46;100546.31;;;2.92;100.00
72959;BME280;60008;50.826;6.896;2022-11-20T05:15:32;100538.13;;;2.97;100.00
72959;BME280;60008;50.826;6.896;2022-11-20T05:18:16;100539.41;;;2.91;100.00
72959;BME280;60008;50.826;6.896;2022-11-20T05:21:02;100548.50;;;2.98;100.00
72959;BME280;60008;50.826;6.896;2022-11-20T05:23:48;100546.44;;;2.80;100.00
72959;BME280;60008;50.826;6.896;2022-11-20T05:26:33;100548.09;;;2.92;100.00
72959;BME280;60008;50.826;6.896;2022-11-20T05:29:18;100543.72;;;2.92;100.00
72959;BME280;60008;50.826;6.896;2022-11-20T05:32:04;100548.97;;;3.04;100.00
72959;BME280;60008;50.826;6.896;2022-11-20T05:34:51;100541.94;;;2.93;100.00
72959;BME280;60008;50.826;6.896;2022-11-20T05:37:35;100539.44;;;3.03;100.00
72959;BME280;60008;50.826;6.896;2022-11-20T05:40:21;100552.66;;;3.01;100.00
72959;BME280;60008;50.826;6.896;2022-11-20T05:43:05;100553.09;;;2.95;100.00
72959;BME280;60008;50.826;6.896;2022-11-20T05:45:53;100550.84;;;2.90;100.00
72959;BME280;60008;50.826;6.896;2022-11-20T05:48:41;100542.84;;;2.81;100.00
72959;BME280;60008;50.826;6.896;2022-11-20T05:51:26;100540.84;;;2.84;100.00
72959;BME280;60008;50.826;6.896;2022-11-20T05:54:12;100548.25;;;3.02;100.00
72959;BME280;60008;50.826;6.896;2022-11-20T05:56:57;100547.00;;;2.83;100.00
72959;BME280;60008;50.826;6.896;2022-11-20T05:59:42;100546.69;;;2.99;100.00
72959;BME280;60008;50.826;6.896;2022-11-20T06:02:27;100552.28;;;3.06;100.00
72959;BME280;60008;50.826;6.896;2022-11-20T06:05:12;100549.78;;;2.93;100.00
72959;BME280;60008;50.826;6.896;2022-11-20T06:07:57;100550.97;;;3.00;100.00
72959;BME280;60008;50.826;6.896;2022-11-20T06:10:43;100550.28;;;3.09;100.00
72959;BME280;60008;50.826;6.896;2022-11-20T06:13:28;100550.28;;;3.09;100.00
72959;BME280;60008;50.826;6.896;2022-11-20T06:16:15;100542.66;;;3.17;100.00
72959;BME280;60008;50.826;6.896;2022-11-20T06:19:00;100537.66;;;3.14;100.00
72959;BME280;60008;50.826;6.896;2022-11-20T06:21:47;100541.72;;;3.07;100.00
72959;BME280;60008;50.826;6.896;2022-11-20T06:24:32;100534.91;;;3.16;100.00
72959;BME280;60008;50.826;6.896;2022-11-20T06:27:17;100545.88;;;3.21;100.00
72959;BME280;60008;50.826;6.896;2022-11-20T06:30:03;100540.13;;;3.05;100.00
72959;BME280;60008;50.826;6.896;2022-11-20T06:32:48;100537.25;;;2.85;100.00
72959;BME280;60008;50.826;6.896;2022-11-20T06:35:33;100537.25;;;2.74;100.00
72959;BME280;60008;50.826;6.896;2022-11-20T06:38:18;100542.50;;;2.74;100.00
72959;BME280;60008;50.826;6.896;2022-11-20T06:41:08;100548.09;;;2.92;100.00
72959;BME280;60008;50.826;6.896;2022-11-20T06:43:55;100561.44;;;3.00;100.00
72959;BME280;60008;50.826;6.896;2022-11-20T06:46:40;100553.00;;;3.08;100.00
72959;BME280;60008;50.826;6.896;2022-11-20T06:49:25;100558.44;;;2.71;100.00
72959;BME280;60008;50.826;6.896;2022-11-20T06:52:10;100557.81;;;2.68;100.00
72959;BME280;60008;50.826;6.896;2022-11-20T06:54:55;100557.09;;;2.66;100.00
72959;BME280;60008;50.826;6.896;2022-11-20T06:57:40;100558.78;;;2.78;100.00
72959;BME280;60008;50.826;6.896;2022-11-20T07:00:25;100558.53;;;2.70;100.00
72959;BME280;60008;50.826;6.896;2022-11-20T07:03:11;100577.41;;;2.62;100.00
72959;BME280;60008;50.826;6.896;2022-11-20T07:05:58;100574.84;;;2.73;100.00
72959;BME280;60008;50.826;6.896;2022-11-20T07:08:44;100572.59;;;2.80;100.00
72959;BME280;60008;50.826;6.896;2022-11-20T07:11:29;100571.19;;;2.87;100.00
72959;BME280;60008;50.826;6.896;2022-11-20T07:14:14;100582.28;;;3.02;100.00
72959;BME280;60008;50.826;6.896;2022-11-20T07:16:59;100578.84;;;3.12;100.00
72959;BME280;60008;50.826;6.896;2022-11-20T07:19:44;100580.16;;;3.18;100.00
72959;BME280;60008;50.826;6.896;2022-11-20T07:22:29;100588.59;;;3.21;100.00
72959;BME280;60008;50.826;6.896;2022-11-20T07:25:14;100587.28;;;3.27;100.00
72959;BME280;60008;50.826;6.896;2022-11-20T07:28:00;100583.13;;;3.24;100.00
72959;BME280;60008;50.826;6.896;2022-11-20T07:30:52;100589.69;;;3.30;100.00
72959;BME280;60008;50.826;6.896;2022-11-20T07:33:37;100590.75;;;3.27;100.00
72959;BME280;60008;50.826;6.896;2022-11-20T07:36:22;100584.34;;;3.31;100.00
72959;BME280;60008;50.826;6.896;2022-11-20T07:39:07;100593.63;;;3.35;100.00
72959;BME280;60008;50.826;6.896;2022-11-20T07:41:52;100594.22;;;3.39;100.00
72959;BME280;60008;50.826;6.896;2022-11-20T07:44:38;100584.44;;;3.30;100.00
72959;BME280;60008;50.826;6.896;2022-11-20T07:47:23;100575.16;;;3.48;100.00
72959;BME280;60008;50.826;6.896;2022-11-20T07:50:08;100568.13;;;3.48;100.00
72959;BME280;60008;50.826;6.896;2022-11-20T07:53:00;100571.97;;;3.44;100.00
72959;BME280;60008;50.826;6.896;2022-11-20T07:55:45;100569.09;;;3.25;100.00
72959;BME280;60008;50.826;6.896;2022-11-20T07:58:30;100571.94;;;3.33;100.00
72959;BME280;60008;50.826;6.896;2022-11-20T08:01:17;100579.44;;;3.49;100.00
72959;BME280;60008;50.826;6.896;2022-11-20T08:04:03;100581.22;;;3.48;100.00
72959;BME280;60008;50.826;6.896;2022-11-20T08:06:48;100574.56;;;3.55;100.00
72959;BME280;60008;50.826;6.896;2022-11-20T08:09:33;100575.97;;;3.59;100.00
72959;BME280;60008;50.826;6.896;2022-11-20T08:12:19;100575.75;;;3.63;100.00
72959;BME280;60008;50.826;6.896;2022-11-20T08:15:23;100574.44;;;3.68;100.00
72959;BME280;60008;50.826;6.896;2022-11-20T08:18:11;100573.34;;;3.71;100.00
72959;BME280;60008;50.826;6.896;2022-11-20T08:21:16;100574.56;;;3.78;100.00
72959;BME280;60008;50.826;6.896;2022-11-20T08:24:01;100560.97;;;3.61;100.00
72959;BME280;60008;50.826;6.896;2022-11-20T08:26:46;100578.72;;;3.91;100.00
72959;BME280;60008;50.826;6.896;2022-11-20T08:29:31;100577.97;;;3.89;100.00
72959;BME280;60008;50.826;6.896;2022-11-20T08:32:16;100570.72;;;3.93;100.00
72959;BME280;60008;50.826;6.896;2022-11-20T08:35:01;100580.59;;;3.78;100.00
72959;BME280;60008;50.826;6.896;2022-11-20T08:37:47;100576.09;;;3.91;100.00
72959;BME280;60008;50.826;6.896;2022-11-20T08:40:33;100578.56;;;4.04;100.00
72959;BME280;60008;50.826;6.896;2022-11-20T08:43:18;100576.22;;;4.21;100.00
72959;BME280;60008;50.826;6.896;2022-11-20T08:46:03;100571.13;;;4.20;100.00
72959;BME280;60008;50.826;6.896;2022-11-20T08:48:48;100575.03;;;4.26;100.00
72959;BME280;60008;50.826;6.896;2022-11-20T08:51:34;100579.22;;;4.17;100.00
72959;BME280;60008;50.826;6.896;2022-11-20T08:54:19;100575.94;;;3.93;100.00
72959;BME280;60008;50.826;6.896;2022-11-20T08:57:06;100568.97;;;3.71;100.00
72959;BME280;60008;50.826;6.896;2022-11-20T08:59:51;100572.84;;;3.99;100.00
72959;BME280;60008;50.826;6.896;2022-11-20T09:02:50;100568.88;;;4.15;100.00
72959;BME280;60008;50.826;6.896;2022-11-20T09:05:36;100572.44;;;4.14;100.00
72959;BME280;60008;50.826;6.896;2022-11-20T09:08:21;100572.81;;;4.10;100.00
72959;BME280;60008;50.826;6.896;2022-11-20T09:11:07;100577.47;;;4.06;100.00
72959;BME280;60008;50.826;6.896;2022-11-20T09:13:52;100577.41;;;3.86;100.00
72959;BME280;60008;50.826;6.896;2022-11-20T09:16:37;100571.88;;;4.00;100.00
72959;BME280;60008;50.826;6.896;2022-11-20T09:19:26;100573.09;;;3.85;100.00
72959;BME280;60008;50.826;6.896;2022-11-20T09:22:24;100572.94;;;3.97;100.00
72959;BME280;60008;50.826;6.896;2022-11-20T09:25:09;100561.94;;;4.14;100.00
72959;BME280;60008;50.826;6.896;2022-11-20T09:27:58;100559.78;;;4.19;100.00
72959;BME280;60008;50.826;6.896;2022-11-20T09:30:44;100565.88;;;4.20;100.00
72959;BME280;60008;50.826;6.896;2022-11-20T09:33:29;100555.59;;;4.28;100.00
72959;BME280;60008;50.826;6.896;2022-11-20T09:36:14;100553.41;;;4.33;100.00
72959;BME280;60008;50.826;6.896;2022-11-20T09:39:00;100553.91;;;4.59;100.00
72959;BME280;60008;50.826;6.896;2022-11-20T09:41:59;100554.56;;;4.72;100.00
72959;BME280;60008;50.826;6.896;2022-11-20T09:48:04;100551.09;;;4.51;100.00
72959;BME280;60008;50.826;6.896;2022-11-20T09:54:00;100548.97;;;4.65;100.00
72959;BME280;60008;50.826;6.896;2022-11-20T09:56:59;100557.47;;;4.37;100.00
72959;BME280;60008;50.826;6.896;2022-11-20T09:59:47;100556.13;;;4.43;100.00
72959;BME280;60008;50.826;6.896;2022-11-20T10:02:37;100556.69;;;4.78;100.00
72959;BME280;60008;50.826;6.896;2022-11-20T10:05:31;100553.78;;;5.02;100.00
72959;BME280;60008;50.826;6.896;2022-11-20T10:08:23;100555.78;;;4.89;100.00
72959;BME280;60008;50.826;6.896;2022-11-20T10:11:30;100556.09;;;4.74;100.00
72959;BME280;60008;50.826;6.896;2022-11-20T10:17:39;100535.69;;;4.78;100.00
72959;BME280;60008;50.826;6.896;2022-11-20T10:20:57;100533.09;;;4.46;100.00
72959;BME280;60008;50.826;6.896;2022-11-20T10:26:54;100513.81;;;4.36;100.00
72959;BME280;60008;50.826;6.896;2022-11-20T10:29:58;100500.25;;;4.52;100.00
72959;BME280;60008;50.826;6.896;2022-11-20T10:32:52;100496.41;;;4.76;100.00
72959;BME280;60008;50.826;6.896;2022-11-20T10:35:43;100487.59;;;4.77;100.00
72959;BME280;60008;50.826;6.896;2022-11-20T10:38:35;100491.22;;;4.24;100.00
72959;BME280;60008;50.826;6.896;2022-11-20T10:41:29;100491.88;;;4.37;100.00
72959;BME280;60008;50.826;6.896;2022-11-20T10:44:24;100489.31;;;4.47;100.00
72959;BME280;60008;50.826;6.896;2022-11-20T10:47:30;100497.75;;;4.30;100.00
72959;BME280;60008;50.826;6.896;2022-11-20T10:50:19;100489.75;;;4.31;100.00
72959;BME280;60008;50.826;6.896;2022-11-20T10:56:32;100472.78;;;4.35;100.00
72959;BME280;60008;50.826;6.896;2022-11-20T10:59:47;100476.13;;;4.58;100.00
72959;BME280;60008;50.826;6.896;2022-11-20T11:02:50;100466.47;;;4.58;100.00
72959;BME280;60008;50.826;6.896;2022-11-20T11:05:40;100462.34;;;4.65;100.00
72959;BME280;60008;50.826;6.896;2022-11-20T11:08:34;100446.94;;;4.72;100.00
72959;BME280;60008;50.826;6.896;2022-11-20T11:11:26;100447.31;;;4.67;100.00
72959;BME280;60008;50.826;6.896;2022-11-20T11:14:14;100444.06;;;5.05;100.00
72959;BME280;60008;50.826;6.896;2022-11-20T11:17:00;100436.88;;;5.07;100.00
72959;BME280;60008;50.826;6.896;2022-11-20T11:19:45;100434.00;;;4.59;100.00
72959;BME280;60008;50.826;6.896;2022-11-20T11:22:32;100431.53;;;4.58;100.00
72959;BME280;60008;50.826;6.896;2022-11-20T11:25:24;100431.78;;;4.85;100.00
72959;BME280;60008;50.826;6.896;2022-11-20T11:31:03;100422.72;;;4.68;100.00
72959;BME280;60008;50.826;6.896;2022-11-20T11:33:49;100409.44;;;4.91;100.00
72959;BME280;60008;50.826;6.896;2022-11-20T11:36:35;100413.00;;;4.90;100.00
72959;BME280;60008;50.826;6.896;2022-11-20T11:39:21;100399.66;;;5.02;100.00
72959;BME280;60008;50.826;6.896;2022-11-20T11:42:11;100402.84;;;4.66;100.00
72959;BME280;60008;50.826;6.896;2022-11-20T11:44:59;100403.22;;;4.92;100.00
72959;BME280;60008;50.826;6.896;2022-11-20T11:47:52;100395.78;;;4.97;100.00
72959;BME280;60008;50.826;6.896;2022-11-20T11:50:50;100391.66;;;5.04;100.00
72959;BME280;60008;50.826;6.896;2022-11-20T11:53:40;100385.28;;;4.97;100.00
72959;BME280;60008;50.826;6.896;2022-11-20T11:56:26;100393.56;;;5.02;100.00
72959;BME280;60008;50.826;6.896;2022-11-20T11:59:25;100383.97;;;4.81;100.00
72959;BME280;60008;50.826;6.896;2022-11-20T12:02:24;100375.41;;;4.79;100.00
72959;BME280;60008;50.826;6.896;2022-11-20T12:05:32;100376.66;;;4.75;100.00
72959;BME280;60008;50.826;6.896;2022-11-20T12:08:31;100373.72;;;4.78;100.00
72959;BME280;60008;50.826;6.896;2022-11-20T12:11:24;100370.22;;;4.99;100.00
72959;BME280;60008;50.826;6.896;2022-11-20T12:14:18;100366.38;;;5.03;100.00
72959;BME280;60008;50.826;6.896;2022-11-20T12:17:11;100360.59;;;5.28;100.00
72959;BME280;60008;50.826;6.896;2022-11-20T12:19:57;100351.25;;;4.86;100.00
72959;BME280;60008;50.826;6.896;2022-11-20T12:22:56;100343.97;;;5.08;100.00
72959;BME280;60008;50.826;6.896;2022-11-20T12:25:46;100341.47;;;4.97;100.00
72959;BME280;60008;50.826;6.896;2022-11-20T12:28:40;100343.88;;;5.38;100.00
72959;BME280;60008;50.826;6.896;2022-11-20T12:38:26;100325.88;;;5.15;100.00
72959;BME280;60008;50.826;6.896;2022-11-20T12:41:28;100320.94;;;5.40;100.00
72959;BME280;60008;50.826;6.896;2022-11-20T12:51:09;100317.13;;;4.95;100.00
72959;BME280;60008;50.826;6.896;2022-11-20T12:54:37;100310.69;;;5.18;100.00
72959;BME280;60008;50.826;6.896;2022-11-20T12:57:44;100307.22;;;5.37;100.00
72959;BME280;60008;50.826;6.896;2022-11-20T13:00:35;100302.78;;;5.09;100.00
72959;BME280;60008;50.826;6.896;2022-11-20T13:03:37;100297.41;;;5.39;100.00
72959;BME280;60008;50.826;6.896;2022-11-20T13:06:25;100286.19;;;5.47;100.00
72959;BME280;60008;50.826;6.896;2022-11-20T13:09:13;100283.72;;;5.45;100.00
72959;BME280;60008;50.826;6.896;2022-11-20T13:12:08;100270.84;;;5.23;100.00
72959;BME280;60008;50.826;6.896;2022-11-20T13:15:05;100272.09;;;5.28;100.00
72959;BME280;60008;50.826;6.896;2022-11-20T13:17:57;100268.63;;;5.28;100.00
72959;BME280;60008;50.826;6.896;2022-11-20T13:20:44;100264.63;;;5.53;100.00
72959;BME280;60008;50.826;6.896;2022-11-20T13:23:30;100258.41;;;5.54;100.00
72959;BME280;60008;50.826;6.896;2022-11-20T13:26:17;100249.13;;;5.59;100.00
72959;BME280;60008;50.826;6.896;2022-11-20T13:29:10;100240.25;;;5.60;100.00
72959;BME280;60008;50.826;6.896;2022-11-20T13:32:19;100232.41;;;5.41;100.00
72959;BME280;60008;50.826;6.896;2022-11-20T13:35:05;100238.78;;;5.29;100.00
72959;BME280;60008;50.826;6.896;2022-11-20T13:38:04;100227.97;;;5.41;100.00
72959;BME280;60008;50.826;6.896;2022-11-20T13:40:55;100227.56;;;5.36;100.00
72959;BME280;60008;50.826;6.896;2022-11-20T13:43:41;100218.72;;;5.37;100.00
72959;BME280;60008;50.826;6.896;2022-11-20T13:46:44;100218.59;;;5.49;100.00
72959;BME280;60008;50.826;6.896;2022-11-20T13:49:33;100211.94;;;5.54;100.00
72959;BME280;60008;50.826;6.896;2022-11-20T13:52:34;100208.63;;;5.43;100.00
72959;BME280;60008;50.826;6.896;2022-11-20T13:59:04;100188.97;;;5.47;100.00
72959;BME280;60008;50.826;6.896;2022-11-20T14:01:59;100192.16;;;5.60;100.00
72959;BME280;60008;50.826;6.896;2022-11-20T14:04:47;100196.56;;;5.59;100.00
72959;BME280;60008;50.826;6.896;2022-11-20T14:07:39;100191.31;;;5.59;100.00
72959;BME280;60008;50.826;6.896;2022-11-20T14:10:28;100191.56;;;5.66;100.00
72959;BME280;60008;50.826;6.896;2022-11-20T14:13:20;100185.22;;;5.59;100.00
72959;BME280;60008;50.826;6.896;2022-11-20T14:16:05;100175.66;;;5.58;100.00
72959;BME280;60008;50.826;6.896;2022-11-20T14:18:51;100162.91;;;5.63;100.00
72959;BME280;60008;50.826;6.896;2022-11-20T14:21:36;100165.53;;;5.63;100.00
72959;BME280;60008;50.826;6.896;2022-11-20T14:24:23;100163.91;;;5.62;100.00
72959;BME280;60008;50.826;6.896;2022-11-20T14:27:17;100155.00;;;5.72;100.00
72959;BME280;60008;50.826;6.896;2022-11-20T14:30:03;100156.09;;;5.79;100.00
72959;BME280;60008;50.826;6.896;2022-11-20T14:32:49;100156.63;;;5.83;100.00
72959;BME280;60008;50.826;6.896;2022-11-20T14:35:37;100153.31;;;5.81;100.00
72959;BME280;60008;50.826;6.896;2022-11-20T14:38:27;100144.22;;;5.75;100.00
72959;BME280;60008;50.826;6.896;2022-11-20T14:41:21;100142.41;;;5.76;100.00
72959;BME280;60008;50.826;6.896;2022-11-20T14:44:08;100137.56;;;5.81;100.00
72959;BME280;60008;50.826;6.896;2022-11-20T14:46:54;100128.66;;;5.82;100.00
72959;BME280;60008;50.826;6.896;2022-11-20T14:49:40;100124.81;;;5.76;100.00
72959;BME280;60008;50.826;6.896;2022-11-20T14:52:27;100127.03;;;5.81;100.00
72959;BME280;60008;50.826;6.896;2022-11-20T14:55:13;100123.28;;;5.83;100.00
72959;BME280;60008;50.826;6.896;2022-11-20T14:58:03;100124.03;;;5.76;100.00
72959;BME280;60008;50.826;6.896;2022-11-20T15:00:57;100124.81;;;5.76;100.00
72959;BME280;60008;50.826;6.896;2022-11-20T15:03:42;100125.25;;;5.72;100.00
72959;BME280;60008;50.826;6.896;2022-11-20T15:06:28;100132.09;;;5.65;100.00
72959;BME280;60008;50.826;6.896;2022-11-20T15:09:15;100135.53;;;5.65;100.00
72959;BME280;60008;50.826;6.896;2022-11-20T15:12:01;100134.84;;;5.63;100.00
72959;BME280;60008;50.826;6.896;2022-11-20T15:14:47;100133.88;;;5.64;100.00
72959;BME280;60008;50.826;6.896;2022-11-20T15:17:40;100122.09;;;5.68;100.00
72959;BME280;60008;50.826;6.896;2022-11-20T15:20:28;100114.81;;;5.62;100.00